sensor_id;sensor_type;location;lat;lon;timestamp;temperature;humidity
421;DHT22;63667;49.046;8.468;2023-01-16T00:00:35;6.10;99.60
421;DHT22;63667;49.046;8.468;2023-01-16T00:03:03;6.10;99.60
421;DHT22;63667;49.046;8.468;2023-01-16T00:05:30;6.20;99.60
421;DHT22;63667;49.046;8.468;2023-01-16T00:07:58;6.20;99.60
421;DHT22;63667;49.046;8.468;2023-01-16T00:10:25;6.30;99.60
421;DHT22;63667;49.046;8.468;2023-01-16T00:12:53;6.30;99.60
421;DHT22;63667;49.046;8.468;2023-01-16T00:15:20;6.30;99.60
421;DHT22;63667;49.046;8.468;2023-01-16T00:17:48;6.30;99.60
421;DHT22;63667;49.046;8.468;2023-01-16T00:20:17;6.30;99.60
421;DHT22;63667;49.046;8.468;2023-01-16T00:22:45;6.40;99.60
421;DHT22;63667;49.046;8.468;2023-01-16T00:25:12;6.40;99.60
421;DHT22;63667;49.046;8.468;2023-01-16T00:27:39;6.50;99.60
421;DHT22;63667;49.046;8.468;2023-01-16T00:30:08;6.50;99.60
421;DHT22;63667;49.046;8.468;2023-01-16T00:32:36;6.50;99.60
421;DHT22;63667;49.046;8.468;2023-01-16T00:35:06;6.50;99.60
421;DHT22;63667;49.046;8.468;2023-01-16T00:37:35;6.50;99.60
421;DHT22;63667;49.046;8.468;2023-01-16T00:40:02;6.50;99.60
421;DHT22;63667;49.046;8.468;2023-01-16T00:42:30;6.50;99.60
421;DHT22;63667;49.046;8.468;2023-01-16T00:44:58;6.40;99.60
421;DHT22;63667;49.046;8.468;2023-01-16T00:47:26;6.40;99.60
421;DHT22;63667;49.046;8.468;2023-01-16T00:49:53;6.30;99.60
421;DHT22;63667;49.046;8.468;2023-01-16T00:52:21;6.30;99.60
421;DHT22;63667;49.046;8.468;2023-01-16T00:54:48;6.20;99.60
421;DHT22;63667;49.046;8.468;2023-01-16T00:57:16;6.20;99.60
421;DHT22;63667;49.046;8.468;2023-01-16T00:59:43;6.10;99.60
421;DHT22;63667;49.046;8.468;2023-01-16T01:02:11;6.10;99.60
421;DHT22;63667;49.046;8.468;2023-01-16T01:04:39;6.10;99.60
421;DHT22;63667;49.046;8.468;2023-01-16T01:07:07;6.00;99.60
421;DHT22;63667;49.046;8.468;2023-01-16T01:09:34;6.00;99.60
421;DHT22;63667;49.046;8.468;2023-01-16T01:12:01;6.00;99.60
421;DHT22;63667;49.046;8.468;2023-01-16T01:14:29;5.90;99.60
421;DHT22;63667;49.046;8.468;2023-01-16T01:16:56;5.90;99.60
421;DHT22;63667;49.046;8.468;2023-01-16T01:19:24;5.80;99.60
421;DHT22;63667;49.046;8.468;2023-01-16T01:21:51;5.80;99.60
421;DHT22;63667;49.046;8.468;2023-01-16T01:24:18;5.80;99.60
421;DHT22;63667;49.046;8.468;2023-01-16T01:26:45;5.70;99.60
421;DHT22;63667;49.046;8.468;2023-01-16T01:29:13;5.70;99.60
421;DHT22;63667;49.046;8.468;2023-01-16T01:31:40;5.80;99.60
421;DHT22;63667;49.046;8.468;2023-01-16T01:34:07;5.80;99.60
421;DHT22;63667;49.046;8.468;2023-01-16T01:36:35;5.80;99.60
421;DHT22;63667;49.046;8.468;2023-01-16T01:39:02;5.80;99.60
421;DHT22;63667;49.046;8.468;2023-01-16T01:41:31;5.80;99.60
421;DHT22;63667;49.046;8.468;2023-01-16T01:43:58;5.80;99.60
421;DHT22;63667;49.046;8.468;2023-01-16T01:49:00;5.80;99.60
421;DHT22;63667;49.046;8.468;2023-01-16T01:51:34;5.70;99.60
421;DHT22;63667;49.046;8.468;2023-01-16T01:54:28;5.80;99.60
421;DHT22;63667;49.046;8.468;2023-01-16T01:57:02;5.80;99.60
421;DHT22;63667;49.046;8.468;2023-01-16T01:59:35;5.80;99.60
421;DHT22;63667;49.046;8.468;2023-01-16T02:02:06;5.90;99.60
421;DHT22;63667;49.046;8.468;2023-01-16T02:04:36;5.90;99.60
421;DHT22;63667;49.046;8.468;2023-01-16T02:07:08;5.90;99.60
421;DHT22;63667;49.046;8.468;2023-01-16T02:09:37;5.90;99.60
421;DHT22;63667;49.046;8.468;2023-01-16T02:12:08;6.00;99.60
421;DHT22;63667;49.046;8.468;2023-01-16T02:14:38;6.00;99.60
421;DHT22;63667;49.046;8.468;2023-01-16T02:17:19;6.10;99.60
421;DHT22;63667;49.046;8.468;2023-01-16T02:20:25;6.20;99.60
421;DHT22;63667;49.046;8.468;2023-01-16T02:53:01;6.80;99.60
421;DHT22;63667;49.046;8.468;2023-01-16T02:55:57;7.00;99.60
421;DHT22;63667;49.046;8.468;2023-01-16T02:58:31;7.00;99.60
421;DHT22;63667;49.046;8.468;2023-01-16T03:00:59;7.00;99.60
421;DHT22;63667;49.046;8.468;2023-01-16T03:03:40;7.00;99.60
421;DHT22;63667;49.046;8.468;2023-01-16T03:06:22;7.00;99.60
421;DHT22;63667;49.046;8.468;2023-01-16T03:09:22;7.00;99.60
421;DHT22;63667;49.046;8.468;2023-01-16T03:12:34;7.00;99.60
421;DHT22;63667;49.046;8.468;2023-01-16T03:18:10;7.00;99.60
421;DHT22;63667;49.046;8.468;2023-01-16T03:20:57;7.10;99.60
421;DHT22;63667;49.046;8.468;2023-01-16T03:26:04;7.00;99.60
421;DHT22;63667;49.046;8.468;2023-01-16T03:31:34;7.00;99.60
421;DHT22;63667;49.046;8.468;2023-01-16T03:37:42;7.00;99.60
421;DHT22;63667;49.046;8.468;2023-01-16T03:40:16;7.00;99.60
421;DHT22;63667;49.046;8.468;2023-01-16T03:45:41;7.10;99.60
421;DHT22;63667;49.046;8.468;2023-01-16T03:48:22;7.00;99.60
421;DHT22;63667;49.046;8.468;2023-01-16T03:50:53;7.10;99.60
421;DHT22;63667;49.046;8.468;2023-01-16T03:53:29;7.00;99.60
421;DHT22;63667;49.046;8.468;2023-01-16T03:56:19;7.20;99.60
421;DHT22;63667;49.046;8.468;2023-01-16T03:58:51;7.10;99.60
421;DHT22;63667;49.046;8.468;2023-01-16T04:01:27;7.10;99.60
421;DHT22;63667;49.046;8.468;2023-01-16T04:04:18;7.00;99.60
421;DHT22;63667;49.046;8.468;2023-01-16T04:07:21;7.00;99.60
421;DHT22;63667;49.046;8.468;2023-01-16T04:09:57;7.10;99.60
421;DHT22;63667;49.046;8.468;2023-01-16T04:12:30;7.10;99.60
421;DHT22;63667;49.046;8.468;2023-01-16T04:15:02;7.10;99.60
421;DHT22;63667;49.046;8.468;2023-01-16T04:17:30;7.10;99.60
421;DHT22;63667;49.046;8.468;2023-01-16T04:19:58;6.90;99.60
421;DHT22;63667;49.046;8.468;2023-01-16T04:22:27;6.80;99.60
421;DHT22;63667;49.046;8.468;2023-01-16T04:24:57;6.80;99.60
421;DHT22;63667;49.046;8.468;2023-01-16T04:27:24;6.80;99.60
421;DHT22;63667;49.046;8.468;2023-01-16T04:29:51;6.80;99.60
421;DHT22;63667;49.046;8.468;2023-01-16T04:32:19;6.80;99.60
421;DHT22;63667;49.046;8.468;2023-01-16T04:34:46;6.80;99.60
421;DHT22;63667;49.046;8.468;2023-01-16T04:37:14;6.90;99.60
421;DHT22;63667;49.046;8.468;2023-01-16T04:39:41;6.90;99.60
421;DHT22;63667;49.046;8.468;2023-01-16T04:42:10;6.80;99.60
421;DHT22;63667;49.046;8.468;2023-01-16T04:44:37;6.80;99.60
421;DHT22;63667;49.046;8.468;2023-01-16T04:47:04;6.80;99.60
421;DHT22;63667;49.046;8.468;2023-01-16T04:49:31;6.80;99.60
421;DHT22;63667;49.046;8.468;2023-01-16T04:51:58;6.70;99.60
421;DHT22;63667;49.046;8.468;2023-01-16T04:54:26;6.70;99.60
421;DHT22;63667;49.046;8.468;2023-01-16T04:56:54;6.70;99.60
421;DHT22;63667;49.046;8.468;2023-01-16T04:59:21;6.70;99.60
421;DHT22;63667;49.046;8.468;2023-01-16T05:01:48;6.50;99.60
421;DHT22;63667;49.046;8.468;2023-01-16T05:04:15;6.50;99.60
421;DHT22;63667;49.046;8.468;2023-01-16T05:06:45;6.40;99.60
421;DHT22;63667;49.046;8.468;2023-01-16T05:09:12;6.30;99.60
421;DHT22;63667;49.046;8.468;2023-01-16T05:11:39;6.20;99.60
421;DHT22;63667;49.046;8.468;2023-01-16T05:14:08;6.10;99.60
421;DHT22;63667;49.046;8.468;2023-01-16T05:16:38;6.10;99.60
421;DHT22;63667;49.046;8.468;2023-01-16T05:19:05;6.10;99.60
421;DHT22;63667;49.046;8.468;2023-01-16T05:21:32;6.10;99.60
421;DHT22;63667;49.046;8.468;2023-01-16T05:23:59;6.10;99.60
421;DHT22;63667;49.046;8.468;2023-01-16T05:26:26;6.20;99.60
421;DHT22;63667;49.046;8.468;2023-01-16T05:28:54;6.10;99.60
421;DHT22;63667;49.046;8.468;2023-01-16T05:31:21;6.10;99.60
421;DHT22;63667;49.046;8.468;2023-01-16T05:33:50;5.80;99.60
421;DHT22;63667;49.046;8.468;2023-01-16T05:36:17;5.80;99.60
421;DHT22;63667;49.046;8.468;2023-01-16T05:38:44;5.80;99.60
421;DHT22;63667;49.046;8.468;2023-01-16T05:41:13;5.70;99.60
421;DHT22;63667;49.046;8.468;2023-01-16T05:43:40;5.60;99.60
421;DHT22;63667;49.046;8.468;2023-01-16T05:46:07;5.60;99.60
421;DHT22;63667;49.046;8.468;2023-01-16T05:48:34;5.50;99.60
421;DHT22;63667;49.046;8.468;2023-01-16T05:51:04;5.50;99.60
421;DHT22;63667;49.046;8.468;2023-01-16T05:53:32;5.50;99.60
421;DHT22;63667;49.046;8.468;2023-01-16T05:56:06;5.40;99.60
421;DHT22;63667;49.046;8.468;2023-01-16T05:58:34;5.40;99.60
421;DHT22;63667;49.046;8.468;2023-01-16T06:01:00;5.40;99.60
421;DHT22;63667;49.046;8.468;2023-01-16T06:03:28;5.40;99.60
421;DHT22;63667;49.046;8.468;2023-01-16T06:05:55;5.40;99.60
421;DHT22;63667;49.046;8.468;2023-01-16T06:08:25;5.40;99.60
421;DHT22;63667;49.046;8.468;2023-01-16T06:10:53;5.30;99.60
421;DHT22;63667;49.046;8.468;2023-01-16T06:13:20;5.30;99.60
421;DHT22;63667;49.046;8.468;2023-01-16T06:15:48;5.30;99.60
421;DHT22;63667;49.046;8.468;2023-01-16T06:18:15;5.40;99.60
421;DHT22;63667;49.046;8.468;2023-01-16T06:20:42;5.40;99.60
421;DHT22;63667;49.046;8.468;2023-01-16T06:23:09;5.40;99.60
421;DHT22;63667;49.046;8.468;2023-01-16T06:25:37;5.40;99.60
421;DHT22;63667;49.046;8.468;2023-01-16T06:28:04;5.40;99.60
421;DHT22;63667;49.046;8.468;2023-01-16T06:30:31;5.40;99.60
421;DHT22;63667;49.046;8.468;2023-01-16T06:32:58;5.40;99.60
421;DHT22;63667;49.046;8.468;2023-01-16T06:35:24;5.40;99.60
421;DHT22;63667;49.046;8.468;2023-01-16T06:37:51;5.40;99.60
421;DHT22;63667;49.046;8.468;2023-01-16T06:40:17;5.40;99.60
421;DHT22;63667;49.046;8.468;2023-01-16T06:42:44;5.40;99.60
421;DHT22;63667;49.046;8.468;2023-01-16T06:45:10;5.40;99.60
421;DHT22;63667;49.046;8.468;2023-01-16T06:47:37;5.30;99.60
421;DHT22;63667;49.046;8.468;2023-01-16T06:50:08;5.30;99.60
421;DHT22;63667;49.046;8.468;2023-01-16T06:52:37;5.20;99.60
421;DHT22;63667;49.046;8.468;2023-01-16T06:55:06;5.20;99.60
421;DHT22;63667;49.046;8.468;2023-01-16T06:57:38;5.10;99.60
421;DHT22;63667;49.046;8.468;2023-01-16T07:00:07;5.00;99.60
421;DHT22;63667;49.046;8.468;2023-01-16T07:02:36;4.90;99.60
421;DHT22;63667;49.046;8.468;2023-01-16T07:05:10;4.90;99.60
421;DHT22;63667;49.046;8.468;2023-01-16T07:07:37;4.90;99.60
421;DHT22;63667;49.046;8.468;2023-01-16T07:10:05;5.00;99.60
421;DHT22;63667;49.046;8.468;2023-01-16T07:12:33;4.90;99.60
421;DHT22;63667;49.046;8.468;2023-01-16T07:15:00;5.00;99.60
421;DHT22;63667;49.046;8.468;2023-01-16T07:17:46;5.00;99.60
421;DHT22;63667;49.046;8.468;2023-01-16T07:20:31;5.10;99.60
421;DHT22;63667;49.046;8.468;2023-01-16T07:23:27;5.10;99.60
421;DHT22;63667;49.046;8.468;2023-01-16T07:26:04;5.10;99.60
421;DHT22;63667;49.046;8.468;2023-01-16T07:28:34;5.10;99.60
421;DHT22;63667;49.046;8.468;2023-01-16T07:31:03;5.10;99.60
421;DHT22;63667;49.046;8.468;2023-01-16T07:33:31;5.10;99.60
421;DHT22;63667;49.046;8.468;2023-01-16T07:35:58;5.10;99.60
421;DHT22;63667;49.046;8.468;2023-01-16T07:38:25;5.10;99.60
421;DHT22;63667;49.046;8.468;2023-01-16T07:40:53;5.20;99.60
421;DHT22;63667;49.046;8.468;2023-01-16T07:43:21;5.20;99.60
421;DHT22;63667;49.046;8.468;2023-01-16T07:45:48;5.20;99.60
421;DHT22;63667;49.046;8.468;2023-01-16T07:48:20;5.20;99.60
421;DHT22;63667;49.046;8.468;2023-01-16T07:50:54;5.20;99.60
421;DHT22;63667;49.046;8.468;2023-01-16T07:53:25;5.30;99.60
421;DHT22;63667;49.046;8.468;2023-01-16T07:55:54;5.30;99.60
421;DHT22;63667;49.046;8.468;2023-01-16T07:58:21;5.30;99.60
421;DHT22;63667;49.046;8.468;2023-01-16T08:00:49;5.40;99.60
421;DHT22;63667;49.046;8.468;2023-01-16T08:03:18;5.30;99.60
421;DHT22;63667;49.046;8.468;2023-01-16T08:05:45;5.40;99.60
421;DHT22;63667;49.046;8.468;2023-01-16T08:08:13;5.30;99.60
421;DHT22;63667;49.046;8.468;2023-01-16T08:10:40;5.40;99.60
421;DHT22;63667;49.046;8.468;2023-01-16T08:13:07;5.40;99.60
421;DHT22;63667;49.046;8.468;2023-01-16T08:15:34;5.40;99.60
421;DHT22;63667;49.046;8.468;2023-01-16T08:18:01;5.50;99.60
421;DHT22;63667;49.046;8.468;2023-01-16T08:20:31;5.50;99.60
421;DHT22;63667;49.046;8.468;2023-01-16T08:22:59;5.50;99.60
421;DHT22;63667;49.046;8.468;2023-01-16T08:25:27;5.50;99.60
421;DHT22;63667;49.046;8.468;2023-01-16T08:27:55;5.60;99.60
421;DHT22;63667;49.046;8.468;2023-01-16T08:30:22;5.70;99.60
421;DHT22;63667;49.046;8.468;2023-01-16T08:32:59;5.70;99.60
421;DHT22;63667;49.046;8.468;2023-01-16T08:35:27;5.80;99.60
421;DHT22;63667;49.046;8.468;2023-01-16T08:37:54;5.70;99.60
421;DHT22;63667;49.046;8.468;2023-01-16T08:40:21;5.80;99.60
421;DHT22;63667;49.046;8.468;2023-01-16T08:42:48;5.80;99.60
421;DHT22;63667;49.046;8.468;2023-01-16T08:45:34;5.80;99.60
421;DHT22;63667;49.046;8.468;2023-01-16T08:48:23;5.90;99.60
421;DHT22;63667;49.046;8.468;2023-01-16T08:51:16;6.10;99.60
421;DHT22;63667;49.046;8.468;2023-01-16T08:53:50;6.20;99.60
421;DHT22;63667;49.046;8.468;2023-01-16T08:56:18;6.20;99.60
421;DHT22;63667;49.046;8.468;2023-01-16T08:58:46;6.50;99.60
421;DHT22;63667;49.046;8.468;2023-01-16T09:01:13;6.90;99.60
421;DHT22;63667;49.046;8.468;2023-01-16T09:03:41;7.00;99.60
421;DHT22;63667;49.046;8.468;2023-01-16T09:06:10;7.00;99.60
421;DHT22;63667;49.046;8.468;2023-01-16T09:08:42;7.20;99.60
421;DHT22;63667;49.046;8.468;2023-01-16T09:11:10;7.20;99.60
421;DHT22;63667;49.046;8.468;2023-01-16T09:13:57;7.50;99.60
421;DHT22;63667;49.046;8.468;2023-01-16T09:16:26;7.50;99.60
421;DHT22;63667;49.046;8.468;2023-01-16T09:18:53;7.60;99.60
421;DHT22;63667;49.046;8.468;2023-01-16T09:21:21;7.60;99.60
421;DHT22;63667;49.046;8.468;2023-01-16T09:24:08;7.50;99.60
421;DHT22;63667;49.046;8.468;2023-01-16T09:26:35;7.40;99.60
421;DHT22;63667;49.046;8.468;2023-01-16T09:29:02;7.40;99.60
421;DHT22;63667;49.046;8.468;2023-01-16T09:31:30;7.60;99.60
421;DHT22;63667;49.046;8.468;2023-01-16T09:33:57;7.70;99.60
421;DHT22;63667;49.046;8.468;2023-01-16T09:36:25;7.80;99.60
421;DHT22;63667;49.046;8.468;2023-01-16T09:38:52;7.90;99.60
421;DHT22;63667;49.046;8.468;2023-01-16T09:41:20;7.90;99.60
421;DHT22;63667;49.046;8.468;2023-01-16T09:44:12;7.90;99.60
421;DHT22;63667;49.046;8.468;2023-01-16T09:49:29;7.40;99.60
421;DHT22;63667;49.046;8.468;2023-01-16T09:52:09;7.30;99.60
421;DHT22;63667;49.046;8.468;2023-01-16T09:55:06;7.10;99.60
421;DHT22;63667;49.046;8.468;2023-01-16T09:57:56;7.00;99.60
421;DHT22;63667;49.046;8.468;2023-01-16T10:00:42;7.00;99.60
421;DHT22;63667;49.046;8.468;2023-01-16T10:03:11;7.00;99.60
421;DHT22;63667;49.046;8.468;2023-01-16T10:11:27;6.90;99.60
421;DHT22;63667;49.046;8.468;2023-01-16T10:14:26;6.90;99.60
421;DHT22;63667;49.046;8.468;2023-01-16T10:17:08;6.80;99.60
421;DHT22;63667;49.046;8.468;2023-01-16T10:30:35;6.70;99.60
421;DHT22;63667;49.046;8.468;2023-01-16T10:35:53;6.70;99.60
421;DHT22;63667;49.046;8.468;2023-01-16T10:41:33;6.70;99.60
421;DHT22;63667;49.046;8.468;2023-01-16T10:47:35;6.80;99.60
421;DHT22;63667;49.046;8.468;2023-01-16T10:50:21;6.80;99.60
421;DHT22;63667;49.046;8.468;2023-01-16T10:52:53;6.80;99.60
421;DHT22;63667;49.046;8.468;2023-01-16T10:55:21;6.70;99.60
421;DHT22;63667;49.046;8.468;2023-01-16T11:18:41;6.80;99.60
421;DHT22;63667;49.046;8.468;2023-01-16T11:21:39;6.90;99.60
421;DHT22;63667;49.046;8.468;2023-01-16T11:24:38;7.00;99.60
421;DHT22;63667;49.046;8.468;2023-01-16T11:27:07;7.20;99.60
421;DHT22;63667;49.046;8.468;2023-01-16T11:29:39;7.30;99.60
421;DHT22;63667;49.046;8.468;2023-01-16T11:32:11;7.30;99.60
421;DHT22;63667;49.046;8.468;2023-01-16T11:34:43;7.40;99.60
421;DHT22;63667;49.046;8.468;2023-01-16T11:37:12;7.40;99.60
421;DHT22;63667;49.046;8.468;2023-01-16T11:39:39;7.30;99.60
421;DHT22;63667;49.046;8.468;2023-01-16T11:42:09;7.30;99.60
421;DHT22;63667;49.046;8.468;2023-01-16T11:45:24;7.40;99.60
421;DHT22;63667;49.046;8.468;2023-01-16T11:48:10;7.50;99.60
421;DHT22;63667;49.046;8.468;2023-01-16T11:50:53;7.40;99.60
421;DHT22;63667;49.046;8.468;2023-01-16T11:53:21;7.50;99.60
421;DHT22;63667;49.046;8.468;2023-01-16T12:02:10;7.70;99.60
421;DHT22;63667;49.046;8.468;2023-01-16T12:11:07;7.70;99.60
421;DHT22;63667;49.046;8.468;2023-01-16T12:13:47;7.70;99.60
421;DHT22;63667;49.046;8.468;2023-01-16T12:25:04;8.60;99.60
421;DHT22;63667;49.046;8.468;2023-01-16T12:35:53;9.20;99.60
421;DHT22;63667;49.046;8.468;2023-01-16T12:38:50;10.20;99.60
421;DHT22;63667;49.046;8.468;2023-01-16T12:41:19;9.70;99.60
421;DHT22;63667;49.046;8.468;2023-01-16T12:44:07;9.80;99.60
421;DHT22;63667;49.046;8.468;2023-01-16T12:47:16;10.40;99.60
421;DHT22;63667;49.046;8.468;2023-01-16T12:52:32;10.80;99.60
421;DHT22;63667;49.046;8.468;2023-01-16T12:58:16;10.20;99.60
421;DHT22;63667;49.046;8.468;2023-01-16T13:01:13;10.50;99.60
421;DHT22;63667;49.046;8.468;2023-01-16T13:03:54;10.40;99.60
421;DHT22;63667;49.046;8.468;2023-01-16T13:06:44;10.50;99.60
421;DHT22;63667;49.046;8.468;2023-01-16T13:09:18;10.40;99.60
421;DHT22;63667;49.046;8.468;2023-01-16T13:15:33;9.90;99.60
421;DHT22;63667;49.046;8.468;2023-01-16T13:18:17;9.70;99.60
421;DHT22;63667;49.046;8.468;2023-01-16T13:20:58;9.60;99.60
421;DHT22;63667;49.046;8.468;2023-01-16T13:23:50;9.50;99.60
421;DHT22;63667;49.046;8.468;2023-01-16T13:26:28;9.40;99.60
421;DHT22;63667;49.046;8.468;2023-01-16T13:28:57;9.40;99.60
421;DHT22;63667;49.046;8.468;2023-01-16T13:31:37;9.40;99.60
421;DHT22;63667;49.046;8.468;2023-01-16T13:34:35;9.40;99.60
421;DHT22;63667;49.046;8.468;2023-01-16T13:42:25;9.50;99.60
421;DHT22;63667;49.046;8.468;2023-01-16T13:44:58;9.60;99.60
421;DHT22;63667;49.046;8.468;2023-01-16T13:47:43;9.60;99.60
421;DHT22;63667;49.046;8.468;2023-01-16T13:50:23;9.50;99.60
421;DHT22;63667;49.046;8.468;2023-01-16T13:52:54;9.60;99.60
421;DHT22;63667;49.046;8.468;2023-01-16T13:55:31;9.80;99.60
421;DHT22;63667;49.046;8.468;2023-01-16T13:58:16;9.90;99.60
421;DHT22;63667;49.046;8.468;2023-01-16T14:00:43;9.80;99.60
421;DHT22;63667;49.046;8.468;2023-01-16T14:03:25;10.00;99.60
421;DHT22;63667;49.046;8.468;2023-01-16T14:08:45;10.30;99.60
421;DHT22;63667;49.046;8.468;2023-01-16T14:11:59;10.00;99.60
421;DHT22;63667;49.046;8.468;2023-01-16T14:14:32;10.00;99.60
421;DHT22;63667;49.046;8.468;2023-01-16T14:17:21;9.80;99.60
421;DHT22;63667;49.046;8.468;2023-01-16T14:20:03;9.80;99.60
421;DHT22;63667;49.046;8.468;2023-01-16T14:22:38;9.70;99.60
421;DHT22;63667;49.046;8.468;2023-01-16T14:25:13;9.60;99.60
421;DHT22;63667;49.046;8.468;2023-01-16T14:27:42;9.60;99.60
421;DHT22;63667;49.046;8.468;2023-01-16T14:30:26;9.50;99.60
421;DHT22;63667;49.046;8.468;2023-01-16T14:32:57;9.50;99.60
421;DHT22;63667;49.046;8.468;2023-01-16T14:35:30;9.50;99.60
421;DHT22;63667;49.046;8.468;2023-01-16T14:38:00;9.40;99.60
421;DHT22;63667;49.046;8.468;2023-01-16T14:40:31;9.40;99.60
421;DHT22;63667;49.046;8.468;2023-01-16T14:43:27;9.30;99.60
421;DHT22;63667;49.046;8.468;2023-01-16T14:46:32;9.20;99.60
421;DHT22;63667;49.046;8.468;2023-01-16T14:55:33;8.90;99.60
421;DHT22;63667;49.046;8.468;2023-01-16T14:58:01;8.80;99.60
421;DHT22;63667;49.046;8.468;2023-01-16T15:00:29;8.60;99.60
421;DHT22;63667;49.046;8.468;2023-01-16T15:03:08;8.30;99.60
421;DHT22;63667;49.046;8.468;2023-01-16T15:05:56;8.00;99.60
421;DHT22;63667;49.046;8.468;2023-01-16T15:08:31;7.60;99.60
421;DHT22;63667;49.046;8.468;2023-01-16T15:11:15;7.40;99.60
421;DHT22;63667;49.046;8.468;2023-01-16T15:14:16;7.30;99.60
421;DHT22;63667;49.046;8.468;2023-01-16T15:17:44;7.10;99.60
421;DHT22;63667;49.046;8.468;2023-01-16T15:20:32;7.10;99.60
421;DHT22;63667;49.046;8.468;2023-01-16T15:26:17;7.10;99.60
421;DHT22;63667;49.046;8.468;2023-01-16T15:28:55;7.30;99.60
421;DHT22;63667;49.046;8.468;2023-01-16T15:31:33;7.30;99.60
421;DHT22;63667;49.046;8.468;2023-01-16T15:34:20;7.30;99.60
421;DHT22;63667;49.046;8.468;2023-01-16T15:36:51;7.40;99.60
421;DHT22;63667;49.046;8.468;2023-01-16T15:39:24;7.40;99.60
421;DHT22;63667;49.046;8.468;2023-01-16T15:42:18;7.40;99.60
421;DHT22;63667;49.046;8.468;2023-01-16T15:45:24;7.30;99.60
421;DHT22;63667;49.046;8.468;2023-01-16T15:50:58;7.20;99.60
421;DHT22;63667;49.046;8.468;2023-01-16T15:53:49;7.20;99.60
421;DHT22;63667;49.046;8.468;2023-01-16T15:56:35;7.20;99.60
421;DHT22;63667;49.046;8.468;2023-01-16T15:59:27;7.10;99.60
421;DHT22;63667;49.046;8.468;2023-01-16T16:02:19;7.10;99.60
421;DHT22;63667;49.046;8.468;2023-01-16T16:04:51;7.10;99.60
421;DHT22;63667;49.046;8.468;2023-01-16T16:07:21;7.10;99.60
421;DHT22;63667;49.046;8.468;2023-01-16T16:09:49;7.00;99.60
421;DHT22;63667;49.046;8.468;2023-01-16T16:12:20;6.90;99.60
421;DHT22;63667;49.046;8.468;2023-01-16T16:20:39;6.70;99.60
421;DHT22;63667;49.046;8.468;2023-01-16T16:28:34;6.70;99.60
421;DHT22;63667;49.046;8.468;2023-01-16T16:31:28;6.80;99.60
421;DHT22;63667;49.046;8.468;2023-01-16T16:34:21;6.90;99.60
421;DHT22;63667;49.046;8.468;2023-01-16T16:36:57;6.70;99.60
421;DHT22;63667;49.046;8.468;2023-01-16T16:39:52;6.50;99.60
421;DHT22;63667;49.046;8.468;2023-01-16T16:42:57;6.40;99.60
421;DHT22;63667;49.046;8.468;2023-01-16T16:47:27;6.10;99.60
421;DHT22;63667;49.046;8.468;2023-01-16T16:49:55;6.00;99.60
421;DHT22;63667;49.046;8.468;2023-01-16T16:52:30;6.00;99.60
421;DHT22;63667;49.046;8.468;2023-01-16T16:55:00;5.90;99.60
421;DHT22;63667;49.046;8.468;2023-01-16T16:57:39;5.90;99.60
421;DHT22;63667;49.046;8.468;2023-01-16T17:00:15;5.70;99.60
421;DHT22;63667;49.046;8.468;2023-01-16T17:02:49;5.70;99.60
421;DHT22;63667;49.046;8.468;2023-01-16T17:05:18;5.50;99.60
421;DHT22;63667;49.046;8.468;2023-01-16T17:07:47;5.50;99.60
421;DHT22;63667;49.046;8.468;2023-01-16T17:10:15;5.50;99.60
421;DHT22;63667;49.046;8.468;2023-01-16T17:12:43;5.50;99.60
421;DHT22;63667;49.046;8.468;2023-01-16T17:15:10;5.40;99.60
421;DHT22;63667;49.046;8.468;2023-01-16T17:17:41;5.30;99.60
421;DHT22;63667;49.046;8.468;2023-01-16T17:20:19;5.30;99.60
421;DHT22;63667;49.046;8.468;2023-01-16T17:22:49;5.30;99.60
421;DHT22;63667;49.046;8.468;2023-01-16T17:25:16;5.30;99.60
421;DHT22;63667;49.046;8.468;2023-01-16T17:27:49;5.20;99.60
421;DHT22;63667;49.046;8.468;2023-01-16T17:30:17;5.20;99.60
421;DHT22;63667;49.046;8.468;2023-01-16T17:32:51;5.10;99.60
421;DHT22;63667;49.046;8.468;2023-01-16T17:35:20;5.10;99.60
421;DHT22;63667;49.046;8.468;2023-01-16T17:37:48;5.10;99.60
421;DHT22;63667;49.046;8.468;2023-01-16T17:40:16;5.10;99.60
421;DHT22;63667;49.046;8.468;2023-01-16T17:42:43;5.10;99.60
421;DHT22;63667;49.046;8.468;2023-01-16T17:45:43;5.10;99.60
421;DHT22;63667;49.046;8.468;2023-01-16T17:48:28;5.10;99.60
421;DHT22;63667;49.046;8.468;2023-01-16T17:50:56;5.00;99.60
421;DHT22;63667;49.046;8.468;2023-01-16T17:53:27;5.00;99.60
421;DHT22;63667;49.046;8.468;2023-01-16T17:55:55;5.10;99.60
421;DHT22;63667;49.046;8.468;2023-01-16T17:58:26;5.00;99.60
421;DHT22;63667;49.046;8.468;2023-01-16T18:01:03;5.00;99.60
421;DHT22;63667;49.046;8.468;2023-01-16T18:03:38;5.00;99.60
421;DHT22;63667;49.046;8.468;2023-01-16T18:06:09;5.00;99.60
421;DHT22;63667;49.046;8.468;2023-01-16T18:08:37;5.00;99.60
421;DHT22;63667;49.046;8.468;2023-01-16T18:11:12;5.10;99.60
421;DHT22;63667;49.046;8.468;2023-01-16T18:13:58;5.10;99.60
421;DHT22;63667;49.046;8.468;2023-01-16T18:16:50;5.10;99.60
421;DHT22;63667;49.046;8.468;2023-01-16T18:19:35;5.10;99.60
421;DHT22;63667;49.046;8.468;2023-01-16T18:22:03;5.10;99.60
421;DHT22;63667;49.046;8.468;2023-01-16T18:24:33;5.00;99.60
421;DHT22;63667;49.046;8.468;2023-01-16T18:27:03;5.00;99.60
421;DHT22;63667;49.046;8.468;2023-01-16T18:29:31;5.00;99.60
421;DHT22;63667;49.046;8.468;2023-01-16T18:31:59;5.00;99.60
421;DHT22;63667;49.046;8.468;2023-01-16T18:35:07;4.90;99.60
421;DHT22;63667;49.046;8.468;2023-01-16T18:37:41;4.90;99.60
421;DHT22;63667;49.046;8.468;2023-01-16T18:40:31;4.80;99.60
421;DHT22;63667;49.046;8.468;2023-01-16T18:43:19;4.70;99.60
421;DHT22;63667;49.046;8.468;2023-01-16T18:46:09;4.60;99.60
421;DHT22;63667;49.046;8.468;2023-01-16T18:48:55;4.60;99.60
421;DHT22;63667;49.046;8.468;2023-01-16T18:51:41;4.60;99.60
421;DHT22;63667;49.046;8.468;2023-01-16T18:54:26;4.60;99.60
421;DHT22;63667;49.046;8.468;2023-01-16T18:57:14;4.60;99.60
421;DHT22;63667;49.046;8.468;2023-01-16T18:59:59;4.70;99.60
421;DHT22;63667;49.046;8.468;2023-01-16T19:02:49;4.70;99.60
421;DHT22;63667;49.046;8.468;2023-01-16T19:05:19;4.70;99.60
421;DHT22;63667;49.046;8.468;2023-01-16T19:07:52;4.70;99.60
421;DHT22;63667;49.046;8.468;2023-01-16T19:10:28;4.70;99.60
421;DHT22;63667;49.046;8.468;2023-01-16T19:13:00;4.70;99.60
421;DHT22;63667;49.046;8.468;2023-01-16T19:15:31;4.80;99.60
421;DHT22;63667;49.046;8.468;2023-01-16T19:17:59;4.70;99.60
421;DHT22;63667;49.046;8.468;2023-01-16T19:20:32;4.70;99.60
421;DHT22;63667;49.046;8.468;2023-01-16T19:22:59;4.70;99.60
421;DHT22;63667;49.046;8.468;2023-01-16T19:25:26;4.70;99.60
421;DHT22;63667;49.046;8.468;2023-01-16T19:27:57;4.70;99.60
421;DHT22;63667;49.046;8.468;2023-01-16T19:30:24;4.60;99.60
421;DHT22;63667;49.046;8.468;2023-01-16T19:32:52;4.60;99.60
421;DHT22;63667;49.046;8.468;2023-01-16T19:35:19;4.60;99.60
421;DHT22;63667;49.046;8.468;2023-01-16T19:37:55;4.50;99.60
421;DHT22;63667;49.046;8.468;2023-01-16T19:40:27;4.50;99.60
421;DHT22;63667;49.046;8.468;2023-01-16T19:42:55;4.50;99.60
421;DHT22;63667;49.046;8.468;2023-01-16T19:45:43;4.40;99.60
421;DHT22;63667;49.046;8.468;2023-01-16T19:48:28;4.50;99.60
421;DHT22;63667;49.046;8.468;2023-01-16T19:50:56;4.40;99.60
421;DHT22;63667;49.046;8.468;2023-01-16T19:53:30;4.40;99.60